createdAt,value
2018-01-21T00:00:44.573Z,993.46
2018-01-21T00:01:46.034Z,993.49
2018-01-21T00:02:47.464Z,993.51
2018-01-21T00:03:48.870Z,993.48
2018-01-21T00:04:50.281Z,993.55
2018-01-21T00:05:51.687Z,993.60
2018-01-21T00:06:53.103Z,993.57
2018-01-21T00:07:54.522Z,993.59
2018-01-21T00:08:55.985Z,993.60
2018-01-21T00:09:57.383Z,993.67
2018-01-21T00:10:58.793Z,993.74
2018-01-21T00:12:00.200Z,993.76
2018-01-21T00:13:01.623Z,993.79
2018-01-21T00:14:03.029Z,993.84
2018-01-21T00:15:04.439Z,993.88
2018-01-21T00:16:05.853Z,993.90
2018-01-21T00:17:07.262Z,993.89
2018-01-21T00:18:08.678Z,993.93
2018-01-21T00:19:10.122Z,993.96
2018-01-21T00:20:11.514Z,993.98
2018-01-21T00:21:12.919Z,993.99
2018-01-21T00:22:14.332Z,994.02
2018-01-21T00:23:15.741Z,994.11
2018-01-21T00:24:17.149Z,994.08
2018-01-21T00:25:18.562Z,994.09
2018-01-21T00:26:19.980Z,994.12
2018-01-21T00:27:21.385Z,994.16
2018-01-21T00:28:22.802Z,994.16
2018-01-21T00:29:24.205Z,994.16
2018-01-21T00:30:25.621Z,994.17
2018-01-21T00:31:27.033Z,994.20
2018-01-21T00:32:28.448Z,994.26
2018-01-21T00:33:29.855Z,994.23
2018-01-21T00:34:31.263Z,994.27
2018-01-21T00:35:32.678Z,994.31
2018-01-21T00:36:34.093Z,994.31
2018-01-21T00:37:35.505Z,994.32
2018-01-21T00:38:36.904Z,994.32
2018-01-21T00:39:38.313Z,994.32
2018-01-21T00:40:39.728Z,994.38
2018-01-21T00:41:41.240Z,994.35
2018-01-21T00:42:42.668Z,994.29
2018-01-21T00:43:44.067Z,994.37
2018-01-21T00:44:45.469Z,994.35
2018-01-21T00:45:46.884Z,994.35
2018-01-21T00:46:48.392Z,994.40
2018-01-21T00:47:49.805Z,994.43
2018-01-21T00:48:51.218Z,994.43
2018-01-21T00:49:52.639Z,994.47
2018-01-21T00:50:54.057Z,994.49
2018-01-21T00:51:55.492Z,994.52
2018-01-21T00:52:56.898Z,994.57
2018-01-21T00:53:58.348Z,994.60
2018-01-21T00:54:59.761Z,994.66
2018-01-21T00:56:01.176Z,994.66
2018-01-21T00:57:02.628Z,994.70
2018-01-21T00:58:04.049Z,994.71
2018-01-21T00:59:05.453Z,994.72
2018-01-21T01:00:07.062Z,994.72
2018-01-21T01:01:08.440Z,994.77
2018-01-21T01:02:09.867Z,994.81
2018-01-21T01:03:11.248Z,994.88
2018-01-21T01:04:12.648Z,994.87
2018-01-21T01:05:14.065Z,994.87
2018-01-21T01:06:15.466Z,994.88
2018-01-21T01:07:16.879Z,994.84
2018-01-21T01:08:18.290Z,994.87
2018-01-21T01:09:19.697Z,994.85
2018-01-21T01:10:21.096Z,994.86
2018-01-21T01:11:22.536Z,994.93
2018-01-21T01:12:23.945Z,994.94
2018-01-21T01:13:25.354Z,994.99
2018-01-21T01:14:26.767Z,995.04
2018-01-21T01:15:28.177Z,995.10
2018-01-21T01:16:29.588Z,995.15
2018-01-21T01:17:31.000Z,995.16
2018-01-21T01:18:32.414Z,995.16
2018-01-21T01:19:33.846Z,995.24
2018-01-21T01:20:35.240Z,995.23
2018-01-21T01:21:36.641Z,995.23
2018-01-21T01:22:38.055Z,995.24
2018-01-21T01:23:39.472Z,995.28
2018-01-21T01:24:40.886Z,995.27
2018-01-21T01:25:42.290Z,995.36
2018-01-21T01:26:43.701Z,995.37
2018-01-21T01:27:45.106Z,995.40
2018-01-21T01:28:46.517Z,995.39
2018-01-21T01:29:47.923Z,995.36
2018-01-21T01:30:49.329Z,995.43
2018-01-21T01:31:50.738Z,995.48
2018-01-21T01:32:52.151Z,995.49
2018-01-21T01:33:54.177Z,995.50
2018-01-21T01:34:55.578Z,995.54
2018-01-21T01:35:56.993Z,995.53
2018-01-21T01:36:58.411Z,995.58
2018-01-21T01:38:12.572Z,995.58
2018-01-21T01:39:13.704Z,995.56
2018-01-21T01:40:15.112Z,995.65
2018-01-21T01:41:16.523Z,995.66
2018-01-21T01:42:17.936Z,995.68
2018-01-21T01:43:19.358Z,995.70
2018-01-21T01:44:20.756Z,995.72
2018-01-21T01:45:22.173Z,995.71
2018-01-21T01:46:23.588Z,995.75
2018-01-21T01:47:24.988Z,995.75
2018-01-21T01:48:26.482Z,995.77
2018-01-21T01:49:27.893Z,995.77
2018-01-21T01:50:29.311Z,995.82
2018-01-21T01:51:30.728Z,995.86
2018-01-21T01:52:32.148Z,995.87
2018-01-21T01:53:33.558Z,995.89
2018-01-21T01:54:34.965Z,995.94
2018-01-21T01:55:36.375Z,995.92
2018-01-21T01:56:37.782Z,995.97
2018-01-21T01:57:39.186Z,995.98
2018-01-21T01:58:40.602Z,995.96
2018-01-21T01:59:42.002Z,995.97
2018-01-21T02:00:43.410Z,996.00
2018-01-21T02:01:44.830Z,996.08
2018-01-21T02:02:46.250Z,996.07
2018-01-21T02:03:47.652Z,996.10
2018-01-21T02:04:49.063Z,996.14
2018-01-21T02:05:50.465Z,996.15
2018-01-21T02:06:51.879Z,996.13
2018-01-21T02:07:53.299Z,996.16
2018-01-21T02:08:54.708Z,996.18
2018-01-21T02:09:56.114Z,996.25
2018-01-21T02:10:57.531Z,996.25
2018-01-21T02:11:58.946Z,996.30
2018-01-21T02:13:00.350Z,996.31
2018-01-21T02:14:01.757Z,996.31
2018-01-21T02:15:03.168Z,996.37
2018-01-21T02:16:04.577Z,996.36
2018-01-21T02:17:05.994Z,996.37
2018-01-21T02:18:07.397Z,996.37
2018-01-21T02:19:08.812Z,996.43
2018-01-21T02:20:10.224Z,996.41
2018-01-21T02:21:11.621Z,996.41
2018-01-21T02:22:13.032Z,996.38
2018-01-21T02:23:14.451Z,996.42
2018-01-21T02:24:15.857Z,996.43
2018-01-21T02:25:17.282Z,996.48
2018-01-21T02:26:18.687Z,996.45
2018-01-21T02:27:20.096Z,996.48
2018-01-21T02:28:21.507Z,996.51
2018-01-21T02:29:22.914Z,996.55
2018-01-21T02:30:24.329Z,996.60
2018-01-21T02:31:25.737Z,996.56
2018-01-21T02:32:27.163Z,996.58
2018-01-21T02:33:28.576Z,996.59
2018-01-21T02:34:29.988Z,996.62
2018-01-21T02:35:31.390Z,996.62
2018-01-21T02:36:32.800Z,996.66
2018-01-21T02:37:34.207Z,996.65
2018-01-21T02:38:35.614Z,996.67
2018-01-21T02:39:37.028Z,996.68
2018-01-21T02:40:38.439Z,996.73
2018-01-21T02:41:39.855Z,996.73
2018-01-21T02:42:41.259Z,996.77
2018-01-21T02:43:42.674Z,996.76
2018-01-21T02:44:44.074Z,996.75
2018-01-21T02:45:45.488Z,996.78
2018-01-21T02:46:46.888Z,996.75
2018-01-21T02:47:48.294Z,996.75
2018-01-21T02:48:49.712Z,996.76
2018-01-21T02:49:51.123Z,996.81
2018-01-21T02:50:52.532Z,996.85
2018-01-21T02:51:53.937Z,996.88
2018-01-21T02:52:55.363Z,996.93
2018-01-21T02:53:56.755Z,996.95
2018-01-21T02:54:58.156Z,996.93
2018-01-21T02:55:59.565Z,996.97
2018-01-21T02:57:00.986Z,996.98
2018-01-21T02:58:02.402Z,997.08
2018-01-21T02:59:03.816Z,997.11
2018-01-21T03:00:05.223Z,997.07
2018-01-21T03:01:06.632Z,997.08
2018-01-21T03:02:08.042Z,997.15
2018-01-21T03:03:09.454Z,997.13
2018-01-21T03:04:10.859Z,997.24
2018-01-21T03:05:12.258Z,997.22
2018-01-21T03:06:13.665Z,997.26
2018-01-21T03:07:15.067Z,997.30
2018-01-21T03:08:16.476Z,997.31
2018-01-21T03:09:17.886Z,997.36
2018-01-21T03:10:19.318Z,997.35
2018-01-21T03:11:20.724Z,997.38
2018-01-21T03:12:22.127Z,997.41
2018-01-21T03:13:24.150Z,997.41
2018-01-21T03:14:25.551Z,997.43
2018-01-21T03:15:26.960Z,997.53
2018-01-21T03:16:28.367Z,997.57
2018-01-21T03:17:29.774Z,997.57
2018-01-21T03:18:31.182Z,997.56
2018-01-21T03:19:32.617Z,997.62
2018-01-21T03:20:34.024Z,997.61
2018-01-21T03:21:35.428Z,997.62
2018-01-21T03:22:36.838Z,997.60
2018-01-21T03:23:38.246Z,997.63
2018-01-21T03:24:39.653Z,997.60
2018-01-21T03:25:41.065Z,997.65
2018-01-21T03:26:42.469Z,997.73
2018-01-21T03:27:43.884Z,997.73
2018-01-21T03:28:45.297Z,997.72
2018-01-21T03:29:46.745Z,997.76
2018-01-21T03:30:48.150Z,997.73
2018-01-21T03:31:49.568Z,997.78
2018-01-21T03:32:50.978Z,997.82
2018-01-21T03:33:52.393Z,997.83
2018-01-21T03:34:54.500Z,997.82
2018-01-21T03:35:55.910Z,997.79
2018-01-21T03:36:57.319Z,997.78
2018-01-21T03:37:58.721Z,997.77
2018-01-21T03:39:00.130Z,997.79
2018-01-21T03:40:01.532Z,997.81
2018-01-21T03:41:02.953Z,997.81
2018-01-21T03:42:04.361Z,997.88
2018-01-21T03:43:05.771Z,997.89
2018-01-21T03:44:07.183Z,997.93
2018-01-21T03:45:08.598Z,997.93
2018-01-21T03:46:09.994Z,997.96
2018-01-21T03:47:11.417Z,998.00
2018-01-21T03:48:12.828Z,998.00
2018-01-21T03:49:14.229Z,998.04
2018-01-21T03:50:15.642Z,998.08
2018-01-21T03:51:17.044Z,998.12
2018-01-21T03:52:18.457Z,998.12
2018-01-21T03:53:19.873Z,998.14
2018-01-21T03:54:21.273Z,998.17
2018-01-21T03:55:22.675Z,998.16
2018-01-21T03:56:24.082Z,998.22
2018-01-21T03:57:25.491Z,998.23
2018-01-21T03:58:26.899Z,998.25
2018-01-21T03:59:28.305Z,998.23
2018-01-21T04:00:29.715Z,998.27
2018-01-21T04:01:31.114Z,998.28
2018-01-21T04:02:32.542Z,998.22
2018-01-21T04:03:33.950Z,998.30
2018-01-21T04:04:35.365Z,998.33
2018-01-21T04:05:36.773Z,998.38
2018-01-21T04:06:38.182Z,998.30
2018-01-21T04:07:39.585Z,998.38
2018-01-21T04:08:41.000Z,998.41
2018-01-21T04:09:42.408Z,998.42
2018-01-21T04:10:43.819Z,998.40
2018-01-21T04:11:45.223Z,998.42
2018-01-21T04:12:46.691Z,998.42
2018-01-21T04:13:48.036Z,998.46
2018-01-21T04:14:49.460Z,998.47
2018-01-21T04:15:50.876Z,998.48
2018-01-21T04:16:52.285Z,998.51
2018-01-21T04:17:53.699Z,998.54
2018-01-21T04:18:55.106Z,998.53
2018-01-21T04:19:56.518Z,998.51
2018-01-21T04:20:57.922Z,998.59
2018-01-21T04:21:59.334Z,998.63
2018-01-21T04:23:00.751Z,998.69
2018-01-21T04:24:02.153Z,998.67
2018-01-21T04:25:03.555Z,998.69
2018-01-21T04:26:04.966Z,998.68
2018-01-21T04:27:06.372Z,998.76
2018-01-21T04:28:07.779Z,998.76
2018-01-21T04:29:09.190Z,998.77
2018-01-21T04:30:10.603Z,998.77
2018-01-21T04:31:12.019Z,998.78
2018-01-21T04:32:13.418Z,998.86
2018-01-21T04:33:14.830Z,998.84
2018-01-21T04:34:16.235Z,998.82
2018-01-21T04:35:17.647Z,998.83
2018-01-21T04:36:19.058Z,998.82
2018-01-21T04:37:20.466Z,998.91
2018-01-21T04:38:21.870Z,998.90
2018-01-21T04:39:23.284Z,998.94
2018-01-21T04:40:24.690Z,998.92
2018-01-21T04:41:26.101Z,998.94
2018-01-21T04:42:27.507Z,998.96
2018-01-21T04:43:28.923Z,999.01
2018-01-21T04:44:30.327Z,999.00
2018-01-21T04:45:31.732Z,999.03
2018-01-21T04:46:33.141Z,999.10
2018-01-21T04:47:34.556Z,999.04
2018-01-21T04:48:35.961Z,999.04
2018-01-21T04:49:37.380Z,999.10
2018-01-21T04:50:38.782Z,999.11
2018-01-21T04:51:40.196Z,999.11
2018-01-21T04:52:41.608Z,999.12
2018-01-21T04:53:43.022Z,999.15
2018-01-21T04:54:44.430Z,999.21
2018-01-21T04:55:45.842Z,999.24
2018-01-21T04:56:47.244Z,999.27
2018-01-21T04:57:48.658Z,999.31
2018-01-21T04:58:50.096Z,999.33
2018-01-21T04:59:51.501Z,999.29
2018-01-21T05:00:52.906Z,999.36
2018-01-21T05:01:54.316Z,999.37
2018-01-21T05:02:55.737Z,999.38
2018-01-21T05:03:57.139Z,999.40
2018-01-21T05:04:58.540Z,999.43
2018-01-21T05:05:59.942Z,999.44
2018-01-21T05:07:01.347Z,999.45
2018-01-21T05:08:02.757Z,999.47
2018-01-21T05:09:04.174Z,999.42
2018-01-21T05:10:05.593Z,999.44
2018-01-21T05:11:07.002Z,999.48
2018-01-21T05:12:08.401Z,999.50
2018-01-21T05:13:09.819Z,999.50
2018-01-21T05:14:11.218Z,999.50
2018-01-21T05:15:12.629Z,999.53
2018-01-21T05:16:14.039Z,999.50
2018-01-21T05:17:15.444Z,999.54
2018-01-21T05:18:16.848Z,999.56
2018-01-21T05:19:18.255Z,999.55
2018-01-21T05:20:19.666Z,999.58
2018-01-21T05:21:21.076Z,999.59
2018-01-21T05:22:22.498Z,999.59
2018-01-21T05:23:23.904Z,999.62
2018-01-21T05:24:25.320Z,999.66
2018-01-21T05:25:26.733Z,999.68
2018-01-21T05:26:28.152Z,999.68
2018-01-21T05:27:29.566Z,999.69
2018-01-21T05:28:30.968Z,999.70
2018-01-21T05:29:32.376Z,999.69
2018-01-21T05:30:33.789Z,999.68
2018-01-21T05:31:35.206Z,999.73
2018-01-21T05:32:36.607Z,999.74
2018-01-21T05:33:38.023Z,999.71
2018-01-21T05:34:39.429Z,999.76
2018-01-21T05:35:40.838Z,999.74
2018-01-21T05:36:42.247Z,999.75
2018-01-21T05:37:43.668Z,999.73
2018-01-21T05:38:45.074Z,999.74
2018-01-21T05:39:46.485Z,999.79
2018-01-21T05:40:47.893Z,999.76
2018-01-21T05:41:49.309Z,999.76
2018-01-21T05:42:50.712Z,999.82
2018-01-21T05:43:52.131Z,999.81
2018-01-21T05:44:53.534Z,999.80
2018-01-21T05:45:54.950Z,999.81
2018-01-21T05:46:56.439Z,999.88
2018-01-21T05:47:57.862Z,999.84
2018-01-21T05:48:59.264Z,999.86
2018-01-21T05:50:00.678Z,999.89
2018-01-21T05:51:02.090Z,999.96
2018-01-21T05:52:03.497Z,999.95
2018-01-21T05:53:04.900Z,999.96
2018-01-21T05:54:06.313Z,999.95
2018-01-21T05:55:07.717Z,999.98
2018-01-21T05:56:09.128Z,999.99
2018-01-21T05:57:10.536Z,999.99
2018-01-21T05:58:11.953Z,999.99
2018-01-21T05:59:13.361Z,1000.03
2018-01-21T06:00:14.879Z,999.99
2018-01-21T06:01:16.292Z,1000.00
2018-01-21T06:02:17.709Z,1000.07
2018-01-21T06:03:19.128Z,1000.10
2018-01-21T06:04:20.543Z,1000.14
2018-01-21T06:05:21.958Z,1000.16
2018-01-21T06:06:23.361Z,1000.13
2018-01-21T06:07:24.767Z,1000.20
2018-01-21T06:08:26.188Z,1000.22
2018-01-21T06:09:27.591Z,1000.21
2018-01-21T06:10:28.997Z,1000.26
2018-01-21T06:11:30.406Z,1000.27
2018-01-21T06:12:31.825Z,1000.33
2018-01-21T06:13:33.225Z,1000.31
2018-01-21T06:14:34.636Z,1000.37
2018-01-21T06:15:36.053Z,1000.36
2018-01-21T06:16:37.464Z,1000.36
2018-01-21T06:17:38.878Z,1000.39
2018-01-21T06:18:40.296Z,1000.42
2018-01-21T06:19:41.696Z,1000.45
2018-01-21T06:20:43.108Z,1000.48
2018-01-21T06:21:44.513Z,1000.55
2018-01-21T06:22:45.931Z,1000.57
2018-01-21T06:23:47.339Z,1000.60
2018-01-21T06:24:48.739Z,1000.63
2018-01-21T06:25:50.155Z,1000.69
2018-01-21T06:26:51.566Z,1000.68
2018-01-21T06:27:52.975Z,1000.67
2018-01-21T06:28:54.397Z,1000.71
2018-01-21T06:29:55.825Z,1000.74
2018-01-21T06:30:57.221Z,1000.76
2018-01-21T06:31:58.632Z,1000.74
2018-01-21T06:33:00.040Z,1000.79
2018-01-21T06:34:01.457Z,1000.77
2018-01-21T06:35:02.870Z,1000.82
2018-01-21T06:36:04.279Z,1000.82
2018-01-21T06:37:05.693Z,1000.87
2018-01-21T06:38:07.109Z,1000.93
2018-01-21T06:39:08.518Z,1000.94
2018-01-21T06:40:09.927Z,1000.94
2018-01-21T06:41:11.334Z,1000.95
2018-01-21T06:42:12.739Z,1001.04
2018-01-21T06:43:14.227Z,1000.98
2018-01-21T06:44:15.643Z,1001.01
2018-01-21T06:45:17.047Z,1001.04
2018-01-21T06:46:18.447Z,1001.06
2018-01-21T06:47:19.859Z,1001.07
2018-01-21T06:48:21.277Z,1001.10
2018-01-21T06:49:22.688Z,1001.10
2018-01-21T06:50:24.095Z,1001.16
2018-01-21T06:51:25.498Z,1001.22
2018-01-21T06:52:26.915Z,1001.20
2018-01-21T06:53:28.330Z,1001.22
2018-01-21T06:54:29.739Z,1001.23
2018-01-21T06:55:31.212Z,1001.22
2018-01-21T06:56:32.623Z,1001.24
2018-01-21T06:57:34.033Z,1001.29
2018-01-21T06:58:35.441Z,1001.32
2018-01-21T06:59:36.851Z,1001.32
2018-01-21T07:00:38.262Z,1001.38
2018-01-21T07:01:39.669Z,1001.33
2018-01-21T07:02:41.084Z,1001.29
2018-01-21T07:03:42.486Z,1001.36
2018-01-21T07:04:43.895Z,1001.39
2018-01-21T07:05:45.302Z,1001.41
2018-01-21T07:06:46.707Z,1001.45
2018-01-21T07:07:48.126Z,1001.42
2018-01-21T07:08:49.531Z,1001.45
2018-01-21T07:09:50.933Z,1001.46
2018-01-21T07:10:52.346Z,1001.45
2018-01-21T07:11:53.748Z,1001.50
2018-01-21T07:12:55.164Z,1001.57
2018-01-21T07:13:56.586Z,1001.57
2018-01-21T07:14:57.998Z,1001.63
2018-01-21T07:15:59.407Z,1001.65
2018-01-21T07:17:00.818Z,1001.65
2018-01-21T07:18:02.241Z,1001.66
2018-01-21T07:19:03.679Z,1001.72
2018-01-21T07:20:05.079Z,1001.76
2018-01-21T07:21:06.487Z,1001.79
2018-01-21T07:22:07.896Z,1001.82
2018-01-21T07:23:09.308Z,1001.86
2018-01-21T07:24:10.732Z,1001.89
2018-01-21T07:25:12.131Z,1001.88
2018-01-21T07:26:13.555Z,1001.91
2018-01-21T07:27:14.971Z,1001.92
2018-01-21T07:28:16.387Z,1001.91
2018-01-21T07:29:17.800Z,1001.92
2018-01-21T07:30:19.211Z,1001.92
2018-01-21T07:31:20.621Z,1001.94
2018-01-21T07:32:22.031Z,1001.94
2018-01-21T07:33:23.438Z,1001.99
2018-01-21T07:34:24.848Z,1001.97
2018-01-21T07:35:26.265Z,1001.99
2018-01-21T07:36:27.679Z,1001.98
2018-01-21T07:37:29.096Z,1002.00
2018-01-21T07:38:30.498Z,1002.02
2018-01-21T07:39:31.925Z,1002.09
2018-01-21T07:40:33.331Z,1002.11
2018-01-21T07:41:34.738Z,1002.11
2018-01-21T07:42:36.164Z,1002.18
2018-01-21T07:43:37.568Z,1002.22
2018-01-21T07:44:38.972Z,1002.25
2018-01-21T07:45:40.406Z,1002.25
2018-01-21T07:46:41.821Z,1002.23
2018-01-21T07:47:43.229Z,1002.20
2018-01-21T07:48:44.635Z,1002.23
2018-01-21T07:49:46.062Z,1002.30
2018-01-21T07:50:47.476Z,1002.31
2018-01-21T07:51:48.892Z,1002.27
2018-01-21T07:52:50.305Z,1002.33
2018-01-21T07:53:51.721Z,1002.39
2018-01-21T07:54:53.147Z,1002.40
2018-01-21T07:55:54.551Z,1002.40
2018-01-21T07:56:55.968Z,1002.44
2018-01-21T07:57:57.387Z,1002.46
2018-01-21T07:58:58.796Z,1002.50
2018-01-21T08:00:00.200Z,1002.54
2018-01-21T08:01:01.612Z,1002.56
2018-01-21T08:02:03.027Z,1002.56
2018-01-21T08:03:04.442Z,1002.61
2018-01-21T08:04:05.858Z,1002.63
2018-01-21T08:05:07.270Z,1002.70
2018-01-21T08:06:08.679Z,1002.67
2018-01-21T08:07:10.085Z,1002.66
2018-01-21T08:08:11.502Z,1002.73
2018-01-21T08:09:12.923Z,1002.76
2018-01-21T08:10:14.358Z,1002.78
2018-01-21T08:11:15.740Z,1002.84
2018-01-21T08:12:17.188Z,1002.87
2018-01-21T08:13:18.563Z,1002.89
2018-01-21T08:14:19.969Z,1002.88
2018-01-21T08:15:21.390Z,1002.91
2018-01-21T08:16:22.808Z,1002.90
2018-01-21T08:17:24.217Z,1002.91
2018-01-21T08:18:25.700Z,1002.93
2018-01-21T08:19:27.083Z,1002.95
2018-01-21T08:20:28.488Z,1002.95
2018-01-21T08:21:29.902Z,1002.99
2018-01-21T08:22:31.310Z,1002.99
2018-01-21T08:23:32.725Z,1003.02
2018-01-21T08:24:34.134Z,1003.01
2018-01-21T08:25:35.557Z,1003.08
2018-01-21T08:26:36.981Z,1003.08
2018-01-21T08:27:38.387Z,1003.09
2018-01-21T08:28:39.788Z,1003.10
2018-01-21T08:29:41.203Z,1003.14
2018-01-21T08:30:42.617Z,1003.09
2018-01-21T08:31:44.029Z,1003.14
2018-01-21T08:32:45.444Z,1003.16
2018-01-21T08:33:46.866Z,1003.20
2018-01-21T08:34:48.281Z,1003.23
2018-01-21T08:35:49.693Z,1003.18
2018-01-21T08:36:51.114Z,1003.18
2018-01-21T08:37:52.553Z,1003.22
2018-01-21T08:38:53.964Z,1003.24
2018-01-21T08:39:55.381Z,1003.23
2018-01-21T08:40:56.795Z,1003.25
2018-01-21T08:41:58.201Z,1003.24
2018-01-21T08:42:59.611Z,1003.28
2018-01-21T08:44:01.022Z,1003.24
2018-01-21T08:45:02.448Z,1003.26
2018-01-21T08:46:03.860Z,1003.27
2018-01-21T08:47:05.272Z,1003.28
2018-01-21T08:48:06.694Z,1003.28
2018-01-21T08:49:08.108Z,1003.34
2018-01-21T08:50:09.521Z,1003.30
2018-01-21T08:51:10.934Z,1003.33
2018-01-21T08:52:12.345Z,1003.33
2018-01-21T08:53:13.751Z,1003.32
2018-01-21T08:54:15.162Z,1003.34
2018-01-21T08:55:16.579Z,1003.40
2018-01-21T08:56:17.994Z,1003.41
2018-01-21T08:57:19.403Z,1003.36
2018-01-21T08:58:20.831Z,1003.45
2018-01-21T08:59:22.242Z,1003.45
2018-01-21T09:00:23.661Z,1003.43
2018-01-21T09:01:25.076Z,1003.44
2018-01-21T09:02:27.258Z,1003.42
2018-01-21T09:03:28.667Z,1003.40
2018-01-21T09:04:30.090Z,1003.40
2018-01-21T09:05:31.495Z,1003.43
2018-01-21T09:06:32.911Z,1003.44
2018-01-21T09:07:34.326Z,1003.47
2018-01-21T09:08:35.733Z,1003.46
2018-01-21T09:09:37.153Z,1003.49
2018-01-21T09:10:38.560Z,1003.52
2018-01-21T09:11:39.974Z,1003.53
2018-01-21T09:12:41.379Z,1003.50
2018-01-21T09:13:42.789Z,1003.55
2018-01-21T09:14:44.195Z,1003.59
2018-01-21T09:15:45.603Z,1003.63
2018-01-21T09:16:47.038Z,1003.66
2018-01-21T09:17:48.440Z,1003.67
2018-01-21T09:18:49.814Z,1003.69
2018-01-21T09:19:51.234Z,1003.75
2018-01-21T09:20:52.661Z,1003.72
2018-01-21T09:21:54.057Z,1003.71
2018-01-21T09:22:55.463Z,1003.77
2018-01-21T09:23:57.002Z,1003.77
2018-01-21T09:24:58.416Z,1003.80
2018-01-21T09:25:59.821Z,1003.82
2018-01-21T09:27:01.239Z,1003.79
2018-01-21T09:28:02.654Z,1003.89
2018-01-21T09:29:04.062Z,1003.93
2018-01-21T09:30:05.586Z,1003.94
2018-01-21T09:31:06.988Z,1003.91
2018-01-21T09:32:08.408Z,1003.96
2018-01-21T09:33:09.820Z,1003.95
2018-01-21T09:34:11.238Z,1003.99
2018-01-21T09:35:12.657Z,1003.98
2018-01-21T09:36:14.067Z,1003.99
2018-01-21T09:37:15.485Z,1003.97
2018-01-21T09:38:16.908Z,1004.02
2018-01-21T09:39:18.322Z,1004.05
2018-01-21T09:40:19.741Z,1004.03
2018-01-21T09:41:21.158Z,1004.07
2018-01-21T09:42:22.563Z,1004.09
2018-01-21T09:43:23.976Z,1004.12
2018-01-21T09:44:25.396Z,1004.12
2018-01-21T09:45:26.811Z,1004.15
2018-01-21T09:46:28.234Z,1004.14
2018-01-21T09:47:29.658Z,1004.15
2018-01-21T09:48:31.071Z,1004.13
2018-01-21T09:49:32.494Z,1004.16
2018-01-21T09:50:35.070Z,1004.20
2018-01-21T09:51:36.977Z,1004.23
2018-01-21T09:52:38.387Z,1004.21
2018-01-21T09:53:39.815Z,1004.22
2018-01-21T09:54:41.862Z,1004.25
2018-01-21T09:55:43.283Z,1004.23
2018-01-21T09:56:44.688Z,1004.24
2018-01-21T09:57:46.111Z,1004.27
2018-01-21T09:58:47.533Z,1004.26
2018-01-21T09:59:48.955Z,1004.30
2018-01-21T10:00:50.419Z,1004.30
2018-01-21T10:01:51.766Z,1004.28
2018-01-21T10:02:53.195Z,1004.29
2018-01-21T10:03:54.608Z,1004.31
2018-01-21T10:04:56.025Z,1004.34
2018-01-21T10:05:57.443Z,1004.33
2018-01-21T10:06:58.858Z,1004.34
2018-01-21T10:08:00.282Z,1004.35
2018-01-21T10:09:01.701Z,1004.39
2018-01-21T10:10:03.130Z,1004.36
2018-01-21T10:11:04.526Z,1004.36
2018-01-21T10:12:05.939Z,1004.38
2018-01-21T10:13:07.359Z,1004.40
2018-01-21T10:14:08.771Z,1004.36
2018-01-21T10:15:10.193Z,1004.40
2018-01-21T10:16:11.603Z,1004.43
2018-01-21T10:17:13.026Z,1004.42
2018-01-21T10:18:14.463Z,1004.44
2018-01-21T10:19:15.877Z,1004.46
2018-01-21T10:20:17.301Z,1004.47
2018-01-21T10:21:18.719Z,1004.50
2018-01-21T10:22:20.134Z,1004.52
2018-01-21T10:23:21.578Z,1004.50
2018-01-21T10:24:23.150Z,1004.50
2018-01-21T10:25:24.541Z,1004.58
2018-01-21T10:26:25.953Z,1004.57
2018-01-21T10:27:27.363Z,1004.60
2018-01-21T10:28:28.770Z,1004.62
2018-01-21T10:29:30.174Z,1004.65
2018-01-21T10:30:31.592Z,1004.66
2018-01-21T10:31:33.102Z,1004.68
2018-01-21T10:32:34.517Z,1004.65
2018-01-21T10:33:35.927Z,1004.64
2018-01-21T10:34:37.361Z,1004.63
2018-01-21T10:35:38.785Z,1004.63
2018-01-21T10:36:40.196Z,1004.65
2018-01-21T10:37:41.612Z,1004.70
2018-01-21T10:38:43.037Z,1004.70
2018-01-21T10:39:44.494Z,1004.68
2018-01-21T10:40:45.865Z,1004.77
2018-01-21T10:41:47.279Z,1004.74
2018-01-21T10:42:48.694Z,1004.76
2018-01-21T10:43:50.116Z,1004.80
2018-01-21T10:44:51.536Z,1004.82
2018-01-21T10:45:52.942Z,1004.86
2018-01-21T10:46:54.358Z,1004.87
2018-01-21T10:47:55.770Z,1004.86
2018-01-21T10:48:57.198Z,1004.85
2018-01-21T10:49:58.610Z,1004.91
2018-01-21T10:51:00.043Z,1004.95
2018-01-21T10:52:01.453Z,1004.97
2018-01-21T10:53:03.496Z,1004.98
2018-01-21T10:54:04.917Z,1005.00
2018-01-21T10:55:06.346Z,1004.98
2018-01-21T10:56:07.759Z,1005.03
2018-01-21T10:57:09.182Z,1004.99
2018-01-21T10:58:10.604Z,1005.06
2018-01-21T10:59:12.208Z,1005.07
2018-01-21T11:00:14.243Z,1005.07
2018-01-21T11:01:15.994Z,1005.10
2018-01-21T11:02:18.207Z,1005.13
2018-01-21T11:03:19.743Z,1005.08
2018-01-21T11:04:21.152Z,1005.06
2018-01-21T11:05:22.565Z,1005.08
2018-01-21T11:06:23.975Z,1005.06
2018-01-21T11:07:25.389Z,1005.10
2018-01-21T11:08:26.797Z,1005.09
2018-01-21T11:09:28.223Z,1005.15
2018-01-21T11:10:29.642Z,1005.14
2018-01-21T11:11:31.059Z,1005.11
2018-01-21T11:12:32.472Z,1005.11
2018-01-21T11:13:33.897Z,1005.10
2018-01-21T11:14:35.321Z,1005.12
2018-01-21T11:15:36.743Z,1005.14
2018-01-21T11:16:38.159Z,1005.13
2018-01-21T11:17:39.584Z,1005.13
2018-01-21T11:18:40.998Z,1005.08
2018-01-21T11:19:42.426Z,1005.08
2018-01-21T11:20:43.836Z,1005.07
2018-01-21T11:21:45.288Z,1005.04
2018-01-21T11:22:46.702Z,1005.03
2018-01-21T11:23:48.122Z,1005.04
2018-01-21T11:24:49.534Z,1005.05
2018-01-21T11:25:50.945Z,1005.04
2018-01-21T11:26:52.361Z,1005.05
2018-01-21T11:27:53.776Z,1005.07
2018-01-21T11:28:55.197Z,1005.07
2018-01-21T11:29:56.620Z,1005.10
2018-01-21T11:30:58.026Z,1005.13
2018-01-21T11:31:59.445Z,1005.10
2018-01-21T11:33:00.871Z,1005.06
2018-01-21T11:34:02.286Z,1005.04
2018-01-21T11:35:03.789Z,1005.01
2018-01-21T11:36:05.217Z,1005.05
2018-01-21T11:37:06.635Z,1005.09
2018-01-21T11:38:08.076Z,1005.05
2018-01-21T11:39:09.495Z,1005.06
2018-01-21T11:40:10.901Z,1005.07
2018-01-21T11:41:12.343Z,1005.05
2018-01-21T11:42:13.866Z,1005.09
2018-01-21T11:43:15.300Z,1005.10
2018-01-21T11:44:16.715Z,1005.14
2018-01-21T11:45:18.121Z,1005.11
2018-01-21T11:46:19.542Z,1005.08
2018-01-21T11:47:20.966Z,1005.07
2018-01-21T11:48:22.448Z,1005.09
2018-01-21T11:49:23.889Z,1005.04
2018-01-21T11:50:25.302Z,1004.99
2018-01-21T11:51:26.719Z,1005.01
2018-01-21T11:52:28.135Z,1005.00
2018-01-21T11:53:29.552Z,1005.00
2018-01-21T11:54:30.978Z,1005.00
2018-01-21T11:55:32.385Z,1004.98
2018-01-21T11:56:33.809Z,1004.98
2018-01-21T11:57:35.225Z,1005.02
2018-01-21T11:58:36.835Z,1004.98
2018-01-21T11:59:38.427Z,1004.98
2018-01-21T12:00:40.109Z,1004.99
2018-01-21T12:01:41.503Z,1005.05
2018-01-21T12:02:42.938Z,1005.04
2018-01-21T12:03:44.354Z,1005.03
2018-01-21T12:04:45.777Z,1005.06
2018-01-21T12:05:47.194Z,1005.08
2018-01-21T12:06:48.631Z,1005.11
2018-01-21T12:07:50.057Z,1005.10
2018-01-21T12:08:51.479Z,1005.15
2018-01-21T12:09:52.902Z,1005.12
2018-01-21T12:10:54.326Z,1005.12
2018-01-21T12:11:55.749Z,1005.12
2018-01-21T12:12:57.183Z,1005.17
2018-01-21T12:13:58.590Z,1005.17
2018-01-21T12:15:00.050Z,1005.16
2018-01-21T12:16:01.440Z,1005.22
2018-01-21T12:17:02.873Z,1005.27
2018-01-21T12:18:04.294Z,1005.29
2018-01-21T12:19:05.718Z,1005.33
2018-01-21T12:20:07.137Z,1005.32
2018-01-21T12:21:08.627Z,1005.40
2018-01-21T12:22:10.038Z,1005.33
2018-01-21T12:23:11.446Z,1005.35
2018-01-21T12:24:12.874Z,1005.37
2018-01-21T12:25:14.286Z,1005.36
2018-01-21T12:26:15.709Z,1005.33
2018-01-21T12:27:17.114Z,1005.31
2018-01-21T12:28:18.543Z,1005.29
2018-01-21T12:29:19.969Z,1005.27
2018-01-21T12:30:21.428Z,1005.24
2018-01-21T12:31:23.222Z,1005.24
2018-01-21T12:32:24.646Z,1005.22
2018-01-21T12:33:26.071Z,1005.25
2018-01-21T12:34:27.488Z,1005.29